createdAt,value
2022-07-25T00:07:03.933Z,4.50
2022-07-25T00:22:04.524Z,4.60
2022-07-25T00:37:04.653Z,5.20
2022-07-25T00:52:05.273Z,4.70
2022-07-25T01:07:06.506Z,5.30
2022-07-25T01:22:07.600Z,4.50
2022-07-25T01:37:08.758Z,3.80
2022-07-25T01:52:09.898Z,3.80
2022-07-25T02:07:10.996Z,4.30
2022-07-25T02:22:12.763Z,4.50
2022-07-25T02:37:13.445Z,3.30
2022-07-25T02:52:13.569Z,3.40
2022-07-25T03:07:14.216Z,3.80
2022-07-25T03:22:15.341Z,3.50
2022-07-25T03:37:16.541Z,3.70
2022-07-25T03:52:17.671Z,3.30
2022-07-25T04:07:18.843Z,10.90
2022-07-25T04:22:21.650Z,4.10
2022-07-25T04:37:22.826Z,3.30
2022-07-25T04:52:23.489Z,3.50
2022-07-25T05:07:23.649Z,3.40
2022-07-25T05:22:28.221Z,6.40
2022-07-25T05:37:29.462Z,4.80
2022-07-25T05:52:30.553Z,177.50
2022-07-25T06:07:31.703Z,98.10
2022-07-25T06:22:32.878Z,152.10
2022-07-25T06:37:34.020Z,1999.90
2022-07-25T06:52:35.327Z,1999.90
2022-07-25T07:07:36.335Z,1999.90
2022-07-25T07:22:38.774Z,1999.90
2022-07-25T07:37:43.457Z,612.30
2022-07-25T07:52:44.739Z,8.10
2022-07-25T08:07:45.883Z,8.40
2022-07-25T08:22:46.463Z,10.10
2022-07-25T08:37:47.068Z,14.10
2022-07-25T08:52:48.226Z,51.60
2022-07-25T09:07:49.537Z,87.30
2022-07-25T09:22:50.787Z,81.70
2022-07-25T09:37:51.884Z,408.90
2022-07-25T09:52:53.092Z,1999.90
2022-07-25T10:07:54.351Z,1999.90
2022-07-25T10:22:57.066Z,1999.90
2022-07-25T10:37:58.659Z,1999.90
2022-07-25T10:52:59.818Z,1999.90
2022-07-25T11:23:09.187Z,1999.90
2022-07-25T11:38:10.414Z,1999.90
2022-07-25T11:53:11.567Z,1999.90
2022-07-25T12:08:12.706Z,1999.90
2022-07-25T12:23:13.910Z,1999.90
2022-07-25T12:38:15.063Z,1999.90
2022-07-25T12:53:16.058Z,1999.90
2022-07-25T13:08:17.242Z,1999.90
2022-07-25T13:23:20.929Z,1999.90
2022-07-25T13:38:22.497Z,1999.90
2022-07-25T13:53:26.719Z,1999.90
2022-07-25T14:08:28.352Z,1999.90
2022-07-25T14:23:30.245Z,1999.90
2022-07-25T14:38:31.066Z,1999.90
2022-07-25T14:53:32.171Z,1999.90
2022-07-25T15:08:33.389Z,1999.90
2022-07-25T15:23:39.664Z,1999.90
2022-07-25T15:38:40.832Z,1999.90
2022-07-25T15:53:42.065Z,1999.90
2022-07-25T16:08:43.139Z,1999.90
2022-07-25T16:23:45.891Z,1999.90
2022-07-25T16:38:45.923Z,846.10
2022-07-25T16:53:46.721Z,429.30
2022-07-25T17:08:48.013Z,471.40
2022-07-25T17:23:49.518Z,287.90
2022-07-25T17:38:50.493Z,319.70
2022-07-25T17:53:51.771Z,1139.10
2022-07-25T18:08:53.907Z,157.90
2022-07-25T18:23:55.487Z,31.40
2022-07-25T18:38:58.541Z,29.10
2022-07-25T18:54:01.091Z,38.30
2022-07-25T19:09:03.003Z,31.30
2022-07-25T19:24:04.945Z,33.20
2022-07-25T19:39:06.062Z,38.30
2022-07-25T19:54:07.860Z,47.10
2022-07-25T20:09:09.965Z,40.80
2022-07-25T20:24:12.022Z,45.80
2022-07-25T20:39:12.637Z,11.90
2022-07-25T20:54:14.410Z,12.90
2022-07-25T21:09:15.656Z,15.80
2022-07-25T21:24:16.357Z,11.40
2022-07-25T21:39:17.043Z,10.00
2022-07-25T21:54:17.778Z,12.80
2022-07-25T22:09:18.384Z,11.10
2022-07-25T22:24:19.589Z,10.80
2022-07-25T22:39:20.329Z,15.10
2022-07-25T22:54:20.960Z,15.20
2022-07-25T23:09:22.179Z,16.50
2022-07-25T23:24:23.383Z,17.90
2022-07-25T23:39:24.514Z,18.40
2022-07-25T23:54:25.658Z,16.50
